sensor_id;sensor_type;location;lat;lon;timestamp;pressure;altitude;pressure_sealevel;temperature;humidity
72975;BME280;61166;54.228;37.632;2023-02-01T20:13:09;98392.78;;;-0.86;nan
72975;BME280;61166;54.228;37.632;2023-02-01T20:15:36;98390.41;;;-0.80;nan
72975;BME280;61166;54.228;37.632;2023-02-01T20:18:02;98400.72;;;-0.80;nan
72975;BME280;61166;54.228;37.632;2023-02-01T20:20:29;98395.38;;;-0.86;nan
72975;BME280;61166;54.228;37.632;2023-02-01T20:22:56;98397.31;;;-0.88;nan
72975;BME280;61166;54.228;37.632;2023-02-01T20:25:23;98400.41;;;-0.77;nan
72975;BME280;61166;54.228;37.632;2023-02-01T20:27:50;98393.75;;;-0.87;nan
72975;BME280;61166;54.228;37.632;2023-02-01T20:30:17;98401.22;;;-0.76;nan
72975;BME280;61166;54.228;37.632;2023-02-01T20:32:48;98400.09;;;-0.74;nan
72975;BME280;61166;54.228;37.632;2023-02-01T20:35:15;98405.53;;;-0.85;nan
72975;BME280;61166;54.228;37.632;2023-02-01T20:37:42;98394.56;;;-0.87;nan
72975;BME280;61166;54.228;37.632;2023-02-01T20:40:10;98403.59;;;-0.91;nan
72975;BME280;61166;54.228;37.632;2023-02-01T20:42:37;98404.59;;;-0.84;nan
72975;BME280;61166;54.228;37.632;2023-02-01T20:45:04;98400.19;;;-0.91;nan
72975;BME280;61166;54.228;37.632;2023-02-01T20:47:31;98410.09;;;-0.79;nan
72975;BME280;61166;54.228;37.632;2023-02-01T20:49:57;98400.59;;;-0.70;nan
72975;BME280;61166;54.228;37.632;2023-02-01T20:52:24;98404.75;;;-0.77;nan
72975;BME280;61166;54.228;37.632;2023-02-01T20:54:50;98413.81;;;-0.73;nan
72975;BME280;61166;54.228;37.632;2023-02-01T20:57:17;98414.75;;;-0.82;nan
72975;BME280;61166;54.228;37.632;2023-02-01T20:59:43;98407.31;;;-0.85;nan
72975;BME280;61166;54.228;37.632;2023-02-01T21:02:10;98411.22;;;-0.73;nan
72975;BME280;61166;54.228;37.632;2023-02-01T21:04:37;98410.53;;;-0.91;nan
72975;BME280;61166;54.228;37.632;2023-02-01T21:07:03;98408.59;;;-0.89;nan
72975;BME280;61166;54.228;37.632;2023-02-01T21:09:30;98407.16;;;-0.84;nan
72975;BME280;61166;54.228;37.632;2023-02-01T21:11:56;98403.16;;;-0.78;nan
72975;BME280;61166;54.228;37.632;2023-02-01T21:14:23;98411.84;;;-0.79;nan
72975;BME280;61166;54.228;37.632;2023-02-01T21:16:50;98400.75;;;-0.72;nan
72975;BME280;61166;54.228;37.632;2023-02-01T21:19:16;98401.22;;;-0.68;nan
72975;BME280;61166;54.228;37.632;2023-02-01T21:21:43;98403.47;;;-0.81;nan
72975;BME280;61166;54.228;37.632;2023-02-01T21:24:10;98410.22;;;-0.88;nan
72975;BME280;61166;54.228;37.632;2023-02-01T21:26:36;98410.25;;;-0.80;nan
72975;BME280;61166;54.228;37.632;2023-02-01T21:29:03;98415.72;;;-0.83;nan
72975;BME280;61166;54.228;37.632;2023-02-01T21:31:29;98409.56;;;-0.90;nan
72975;BME280;61166;54.228;37.632;2023-02-01T21:33:56;98402.31;;;-0.87;nan
72975;BME280;61166;54.228;37.632;2023-02-01T21:36:23;98403.75;;;-0.92;nan
72975;BME280;61166;54.228;37.632;2023-02-01T21:38:52;98405.22;;;-0.90;nan
72975;BME280;61166;54.228;37.632;2023-02-01T21:41:21;98406.16;;;-0.99;nan
72975;BME280;61166;54.228;37.632;2023-02-01T21:43:48;98406.34;;;-0.92;nan
72975;BME280;61166;54.228;37.632;2023-02-01T21:46:14;98403.91;;;-0.94;nan
72975;BME280;61166;54.228;37.632;2023-02-01T21:48:41;98403.59;;;-0.91;nan
72975;BME280;61166;54.228;37.632;2023-02-01T21:51:28;98398.13;;;-0.88;nan
72975;BME280;61166;54.228;37.632;2023-02-01T21:53:55;98395.66;;;-1.06;nan
72975;BME280;61166;54.228;37.632;2023-02-01T21:56:22;98394.03;;;-1.07;nan
72975;BME280;61166;54.228;37.632;2023-02-01T21:58:49;98390.81;;;-1.01;nan
72975;BME280;61166;54.228;37.632;2023-02-01T22:01:15;98387.88;;;-1.14;nan
72975;BME280;61166;54.228;37.632;2023-02-01T22:03:42;98388.22;;;-1.17;nan
72975;BME280;61166;54.228;37.632;2023-02-01T22:06:08;98388.84;;;-1.15;nan
72975;BME280;61166;54.228;37.632;2023-02-01T22:08:36;98389.03;;;-1.16;nan
72975;BME280;61166;54.228;37.632;2023-02-01T22:11:04;98392.41;;;-1.16;nan
72975;BME280;61166;54.228;37.632;2023-02-01T22:13:30;98392.06;;;-1.21;nan
72975;BME280;61166;54.228;37.632;2023-02-01T22:15:57;98394.00;;;-1.23;nan
72975;BME280;61166;54.228;37.632;2023-02-01T22:18:24;98389.16;;;-1.26;nan
72975;BME280;61166;54.228;37.632;2023-02-01T22:20:57;98378.22;;;-1.20;nan
72975;BME280;61166;54.228;37.632;2023-02-01T22:23:24;98381.25;;;-1.24;nan
72975;BME280;61166;54.228;37.632;2023-02-01T22:25:51;98379.97;;;-1.12;nan
72975;BME280;61166;54.228;37.632;2023-02-01T22:28:17;98378.38;;;-1.13;nan
72975;BME280;61166;54.228;37.632;2023-02-01T22:31:03;98382.06;;;-1.24;nan
72975;BME280;61166;54.228;37.632;2023-02-01T22:33:30;98378.38;;;-1.21;nan
72975;BME280;61166;54.228;37.632;2023-02-01T22:35:56;98384.69;;;-1.16;nan
72975;BME280;61166;54.228;37.632;2023-02-01T22:38:23;98383.06;;;-1.09;nan
72975;BME280;61166;54.228;37.632;2023-02-01T22:40:57;98391.09;;;-1.12;nan
72975;BME280;61166;54.228;37.632;2023-02-01T22:43:24;98392.25;;;-1.06;nan
72975;BME280;61166;54.228;37.632;2023-02-01T22:45:51;98383.06;;;-1.09;nan
72975;BME280;61166;54.228;37.632;2023-02-01T22:48:18;98383.41;;;-0.95;nan
72975;BME280;61166;54.228;37.632;2023-02-01T22:50:46;98384.81;;;-1.09;nan
72975;BME280;61166;54.228;37.632;2023-02-01T22:53:13;98391.59;;;-1.16;nan
72975;BME280;61166;54.228;37.632;2023-02-01T22:55:39;98395.00;;;-1.16;nan
72975;BME280;61166;54.228;37.632;2023-02-01T22:58:06;98388.22;;;-1.17;nan
72975;BME280;61166;54.228;37.632;2023-02-01T23:00:33;98385.97;;;-1.04;nan
72975;BME280;61166;54.228;37.632;2023-02-01T23:02:59;98389.34;;;-1.11;nan
72975;BME280;61166;54.228;37.632;2023-02-01T23:05:26;98393.84;;;-1.13;nan
72975;BME280;61166;54.228;37.632;2023-02-01T23:07:52;98394.84;;;-1.06;nan
72975;BME280;61166;54.228;37.632;2023-02-01T23:10:19;98419.72;;;-0.97;nan
72975;BME280;61166;54.228;37.632;2023-02-01T23:12:46;98395.66;;;-0.97;nan
72975;BME280;61166;54.228;37.632;2023-02-01T23:15:13;98404.16;;;-1.21;nan
72975;BME280;61166;54.228;37.632;2023-02-01T23:17:41;98404.31;;;-1.15;nan
72975;BME280;61166;54.228;37.632;2023-02-01T23:20:12;98405.31;;;-1.08;nan
72975;BME280;61166;54.228;37.632;2023-02-01T23:22:43;98407.25;;;-1.18;nan
72975;BME280;61166;54.228;37.632;2023-02-01T23:25:12;98409.81;;;-1.18;nan
72975;BME280;61166;54.228;37.632;2023-02-01T23:27:39;98407.09;;;-1.16;nan
72975;BME280;61166;54.228;37.632;2023-02-01T23:30:06;98405.31;;;-1.08;nan
72975;BME280;61166;54.228;37.632;2023-02-01T23:32:34;98402.84;;;-1.25;nan
72975;BME280;61166;54.228;37.632;2023-02-01T23:35:02;98401.09;;;-1.25;nan
72975;BME280;61166;54.228;37.632;2023-02-01T23:37:29;98405.47;;;-1.09;nan
72975;BME280;61166;54.228;37.632;2023-02-01T23:39:56;98398.53;;;-1.17;nan
72975;BME280;61166;54.228;37.632;2023-02-01T23:42:23;98388.53;;;-1.20;nan
72975;BME280;61166;54.228;37.632;2023-02-01T23:44:49;98390.75;;;-1.25;nan
72975;BME280;61166;54.228;37.632;2023-02-01T23:47:16;98388.69;;;-1.13;nan
72975;BME280;61166;54.228;37.632;2023-02-01T23:49:42;98384.81;;;-1.09;nan
72975;BME280;61166;54.228;37.632;2023-02-01T23:52:09;98385.59;;;-1.25;nan
72975;BME280;61166;54.228;37.632;2023-02-01T23:54:35;98379.03;;;-1.19;nan
72975;BME280;61166;54.228;37.632;2023-02-01T23:57:02;98379.16;;;-1.13;nan
72975;BME280;61166;54.228;37.632;2023-02-01T23:59:29;98376.44;;;-1.11;nan
